createdAt,value
2023-05-01T00:02:55.326Z,100.00
2023-05-01T00:06:12.606Z,100.00
2023-05-01T00:09:29.091Z,100.00
2023-05-01T00:12:45.409Z,100.00
2023-05-01T00:16:01.908Z,100.00
2023-05-01T00:19:24.813Z,100.00
2023-05-01T00:22:41.360Z,100.00
2023-05-01T00:25:57.816Z,100.00
2023-05-01T00:29:14.242Z,100.00
2023-05-01T00:32:31.927Z,100.00
2023-05-01T00:35:52.359Z,100.00
2023-05-01T00:39:09.742Z,100.00
2023-05-01T00:42:26.218Z,100.00
2023-05-01T00:45:42.706Z,100.00
2023-05-01T00:48:59.716Z,100.00
2023-05-01T00:52:16.257Z,100.00
2023-05-01T00:55:34.194Z,100.00
2023-05-01T00:58:51.465Z,100.00
2023-05-01T01:02:07.704Z,100.00
2023-05-01T01:05:24.761Z,100.00
2023-05-01T01:08:46.603Z,100.00
2023-05-01T01:12:12.628Z,100.00
2023-05-01T01:15:35.014Z,100.00
2023-05-01T01:18:56.912Z,100.00
2023-05-01T01:22:18.271Z,100.00
2023-05-01T01:26:08.160Z,100.00
2023-05-01T01:30:00.641Z,100.00
2023-05-01T01:33:55.447Z,100.00
2023-05-01T01:37:17.574Z,100.00
2023-05-01T01:40:41.577Z,100.00
2023-05-01T01:44:01.544Z,100.00
2023-05-01T01:47:21.700Z,100.00
2023-05-01T01:50:40.014Z,100.00
2023-05-01T01:53:59.957Z,100.00
2023-05-01T01:57:19.413Z,100.00
2023-05-01T02:00:42.817Z,100.00
2023-05-01T02:03:59.927Z,100.00
2023-05-01T02:07:19.747Z,100.00
2023-05-01T02:10:37.874Z,100.00
2023-05-01T02:13:57.278Z,100.00
2023-05-01T02:17:14.702Z,100.00
2023-05-01T02:20:31.920Z,100.00
2023-05-01T02:23:49.523Z,100.00
2023-05-01T02:27:10.541Z,100.00
2023-05-01T02:30:27.564Z,100.00
2023-05-01T02:33:43.917Z,100.00
2023-05-01T02:37:00.285Z,100.00
2023-05-01T02:40:19.571Z,100.00
2023-05-01T02:43:39.073Z,100.00
2023-05-01T02:46:58.431Z,100.00
2023-05-01T02:50:17.086Z,100.00
2023-05-01T02:53:34.542Z,100.00
2023-05-01T02:56:53.236Z,100.00
2023-05-01T03:00:14.323Z,100.00
2023-05-01T03:03:31.136Z,100.00
2023-05-01T03:06:48.066Z,100.00
2023-05-01T03:10:05.014Z,100.00
2023-05-01T03:13:22.792Z,100.00
2023-05-01T03:16:41.346Z,100.00
2023-05-01T03:19:58.190Z,100.00
2023-05-01T03:23:15.030Z,100.00
2023-05-01T03:26:31.423Z,100.00
2023-05-01T03:29:48.136Z,100.00
2023-05-01T03:33:04.924Z,100.00
2023-05-01T03:36:22.977Z,100.00
2023-05-01T03:39:39.614Z,100.00
2023-05-01T03:42:58.010Z,100.00
2023-05-01T03:46:14.765Z,100.00
2023-05-01T03:49:31.303Z,100.00
2023-05-01T03:52:48.053Z,100.00
2023-05-01T03:56:05.569Z,100.00
2023-05-01T03:59:23.919Z,100.00
2023-05-01T04:02:40.341Z,100.00
2023-05-01T04:05:57.422Z,100.00
2023-05-01T04:09:13.973Z,100.00
2023-05-01T04:12:30.536Z,100.00
2023-05-01T04:15:48.822Z,100.00
2023-05-01T04:19:05.564Z,100.00
2023-05-01T04:22:23.010Z,100.00
2023-05-01T04:25:40.615Z,100.00
2023-05-01T04:28:58.603Z,100.00
2023-05-01T04:32:15.054Z,100.00
2023-05-01T04:35:31.613Z,100.00
2023-05-01T04:38:49.058Z,100.00
2023-05-01T04:42:05.495Z,100.00
2023-05-01T04:45:22.956Z,100.00
2023-05-01T04:48:39.359Z,100.00
2023-05-01T04:51:59.159Z,100.00
2023-05-01T04:55:19.533Z,100.00
2023-05-01T04:58:53.587Z,100.00
2023-05-01T05:02:11.348Z,100.00
2023-05-01T05:05:27.973Z,100.00
2023-05-01T05:08:44.530Z,100.00
2023-05-01T05:12:00.991Z,100.00
2023-05-01T05:15:19.693Z,100.00
2023-05-01T05:18:36.162Z,100.00
2023-05-01T05:21:53.061Z,100.00
2023-05-01T05:25:09.713Z,100.00
2023-05-01T05:28:30.346Z,100.00
2023-05-01T05:31:49.385Z,100.00
2023-05-01T05:35:19.576Z,100.00
2023-05-01T05:38:36.582Z,100.00
2023-05-01T05:41:56.295Z,100.00
2023-05-01T05:45:15.482Z,100.00
2023-05-01T05:48:33.406Z,100.00
2023-05-01T05:51:50.013Z,100.00
2023-05-01T05:55:07.551Z,100.00
2023-05-01T05:58:25.640Z,100.00
2023-05-01T06:01:43.692Z,100.00
2023-05-01T06:05:00.235Z,100.00
2023-05-01T06:08:17.696Z,100.00
2023-05-01T06:11:34.203Z,100.00
2023-05-01T06:14:50.751Z,100.00
2023-05-01T06:18:07.336Z,100.00
2023-05-01T06:21:23.858Z,100.00
2023-05-01T06:24:42.027Z,100.00
2023-05-01T06:27:59.179Z,100.00
2023-05-01T06:31:15.739Z,100.00
2023-05-01T06:34:33.822Z,100.00
2023-05-01T06:37:50.157Z,100.00
2023-05-01T06:41:06.851Z,100.00
2023-05-01T06:44:23.602Z,100.00
2023-05-01T06:47:39.994Z,100.00
2023-05-01T06:50:57.479Z,100.00
2023-05-01T06:54:14.216Z,100.00
2023-05-01T06:57:32.022Z,100.00
2023-05-01T07:00:48.791Z,100.00
2023-05-01T07:04:05.325Z,100.00
2023-05-01T07:07:21.677Z,100.00
2023-05-01T07:10:40.447Z,100.00
2023-05-01T07:13:56.354Z,100.00
2023-05-01T07:17:14.584Z,100.00
2023-05-01T07:20:31.556Z,100.00
2023-05-01T07:23:48.056Z,100.00
2023-05-01T07:27:04.542Z,100.00
2023-05-01T07:30:22.709Z,100.00
2023-05-01T07:33:39.232Z,100.00
2023-05-01T07:36:55.802Z,100.00
2023-05-01T07:40:13.787Z,100.00
2023-05-01T07:43:30.256Z,100.00
2023-05-01T07:46:46.569Z,100.00
2023-05-01T07:50:06.091Z,100.00
2023-05-01T07:53:23.463Z,100.00
2023-05-01T07:56:40.027Z,100.00
2023-05-01T07:59:57.353Z,100.00
2023-05-01T08:03:14.524Z,98.76
2023-05-01T08:06:31.406Z,99.40
2023-05-01T08:09:47.687Z,94.09
2023-05-01T08:13:07.170Z,95.65
2023-05-01T08:16:24.765Z,92.06
2023-05-01T08:19:46.219Z,93.51
2023-05-01T08:23:04.295Z,93.91
2023-05-01T08:26:22.472Z,93.85
2023-05-01T08:29:39.098Z,92.82
2023-05-01T08:32:56.004Z,93.51
2023-05-01T08:36:16.256Z,94.94
2023-05-01T08:39:38.198Z,92.96
2023-05-01T08:43:03.632Z,94.19
2023-05-01T08:46:27.232Z,93.73
2023-05-01T08:49:44.390Z,92.56
2023-05-01T08:53:02.678Z,94.86
2023-05-01T08:56:24.405Z,95.51
2023-05-01T08:59:44.424Z,93.62
2023-05-01T09:03:02.279Z,92.57
2023-05-01T09:06:20.229Z,93.35
2023-05-01T09:09:37.609Z,93.43
2023-05-01T09:12:58.360Z,92.05
2023-05-01T09:16:16.556Z,93.61
2023-05-01T09:19:36.345Z,91.60
2023-05-01T09:22:55.363Z,94.08
2023-05-01T09:26:13.949Z,92.72
2023-05-01T09:29:51.291Z,92.18
2023-05-01T09:33:17.752Z,92.11
2023-05-01T09:36:37.375Z,94.37
2023-05-01T09:39:54.112Z,91.33
2023-05-01T09:43:11.844Z,92.64
2023-05-01T09:46:30.524Z,94.02
2023-05-01T09:49:56.649Z,93.43
2023-05-01T09:53:14.749Z,100.00
2023-05-01T09:56:32.385Z,94.63
2023-05-01T09:59:50.315Z,93.58
2023-05-01T10:03:21.913Z,90.97
2023-05-01T10:06:53.555Z,91.07
2023-05-01T10:10:28.378Z,93.18
2023-05-01T10:13:46.742Z,91.77
2023-05-01T10:17:03.622Z,92.07
2023-05-01T10:20:22.314Z,91.59
2023-05-01T10:23:39.905Z,91.69
2023-05-01T10:26:59.683Z,92.29
2023-05-01T10:30:20.713Z,92.03
2023-05-01T10:33:40.407Z,93.63
2023-05-01T10:37:02.081Z,91.81
2023-05-01T10:40:54.924Z,92.12
2023-05-01T10:44:37.443Z,92.10
2023-05-01T10:47:57.002Z,93.25
2023-05-01T10:51:22.405Z,91.91
2023-05-01T10:54:41.515Z,92.56
2023-05-01T10:57:57.899Z,91.12
2023-05-01T11:01:40.702Z,92.72
2023-05-01T11:11:01.053Z,93.70
2023-05-01T11:15:07.831Z,90.48
2023-05-01T11:19:39.217Z,91.60
2023-05-01T11:22:58.362Z,91.91
2023-05-01T11:26:15.370Z,92.14
2023-05-01T11:29:32.050Z,93.02
2023-05-01T11:32:50.831Z,93.03
2023-05-01T11:36:12.346Z,93.53
2023-05-01T11:39:29.496Z,93.09
2023-05-01T11:42:48.287Z,92.25
2023-05-01T11:46:07.852Z,93.33
2023-05-01T11:49:26.225Z,94.18
2023-05-01T11:52:55.956Z,92.91
2023-05-01T11:56:25.392Z,93.84
2023-05-01T11:59:34.620Z,92.52
2023-05-01T12:03:07.317Z,93.02
2023-05-01T12:06:24.179Z,93.58
2023-05-01T12:09:42.681Z,93.86
2023-05-01T12:13:00.212Z,94.49
2023-05-01T12:16:18.129Z,93.57
2023-05-01T12:19:36.177Z,94.78
2023-05-01T12:23:02.850Z,94.08
2023-05-01T12:26:29.098Z,93.39
2023-05-01T12:29:52.525Z,93.66
2023-05-01T12:33:18.644Z,92.33
2023-05-01T12:36:37.176Z,91.66
2023-05-01T12:39:54.078Z,92.18
2023-05-01T12:43:10.710Z,91.69
2023-05-01T12:46:27.265Z,92.49
2023-05-01T12:49:45.365Z,93.13
2023-05-01T12:53:02.308Z,92.86
2023-05-01T12:56:28.761Z,91.95
2023-05-01T12:59:47.601Z,90.84
2023-05-01T13:03:09.830Z,91.58
2023-05-01T13:06:26.570Z,91.40
2023-05-01T13:09:43.093Z,91.02
2023-05-01T13:12:59.533Z,91.41
2023-05-01T13:16:18.724Z,90.64
2023-05-01T13:19:38.873Z,91.41
2023-05-01T13:22:55.761Z,91.90
2023-05-01T13:26:13.299Z,92.31
2023-05-01T13:29:32.406Z,91.79
2023-05-01T13:32:51.154Z,91.26
2023-05-01T13:36:17.844Z,90.74
2023-05-01T13:39:29.072Z,91.22
2023-05-01T13:42:43.893Z,91.48
2023-05-01T13:46:04.645Z,92.80
2023-05-01T13:49:21.633Z,91.62
2023-05-01T13:52:39.062Z,91.67
2023-05-01T13:55:58.000Z,92.31
2023-05-01T13:59:15.121Z,91.43
2023-05-01T14:02:35.313Z,91.06
2023-05-01T14:05:54.906Z,90.88
2023-05-01T14:09:12.968Z,91.24
2023-05-01T14:12:33.135Z,90.55
2023-05-01T14:15:50.356Z,91.38
2023-05-01T14:19:06.899Z,90.42
2023-05-01T14:22:23.512Z,90.73
2023-05-01T14:25:41.759Z,90.68
2023-05-01T14:29:00.640Z,90.90
2023-05-01T14:32:19.742Z,90.53
2023-05-01T14:35:53.680Z,90.46
2023-05-01T14:39:18.858Z,90.08
2023-05-01T14:42:36.904Z,90.76
2023-05-01T14:45:58.591Z,89.93
2023-05-01T14:49:15.810Z,90.65
2023-05-01T14:52:32.223Z,90.62
2023-05-01T14:55:55.223Z,90.82
2023-05-01T14:59:11.744Z,90.66
2023-05-01T15:02:28.624Z,91.03
2023-05-01T15:05:47.018Z,90.72
2023-05-01T15:09:05.493Z,90.87
2023-05-01T15:12:21.831Z,91.68
2023-05-01T15:15:41.083Z,91.78
2023-05-01T15:18:57.225Z,91.07
2023-05-01T15:22:13.700Z,91.97
2023-05-01T15:25:30.190Z,91.21
2023-05-01T15:28:46.513Z,91.45
2023-05-01T15:32:12.075Z,92.11
2023-05-01T15:35:24.461Z,92.04
2023-05-01T15:38:40.812Z,92.23
2023-05-01T15:41:57.895Z,92.40
2023-05-01T15:45:18.679Z,93.12
2023-05-01T15:48:35.184Z,93.25
2023-05-01T15:51:55.508Z,93.58
2023-05-01T15:55:14.496Z,94.01
2023-05-01T15:58:32.648Z,94.29
2023-05-01T16:01:49.835Z,94.40
2023-05-01T16:05:06.447Z,94.86
2023-05-01T16:08:24.594Z,95.47
2023-05-01T16:11:43.458Z,95.59
2023-05-01T16:14:59.848Z,95.67
2023-05-01T16:18:22.410Z,96.48
2023-05-01T16:21:42.738Z,95.46
2023-05-01T16:25:00.359Z,96.29
2023-05-01T16:28:17.958Z,96.46
2023-05-01T16:31:34.963Z,96.57
2023-05-01T16:34:52.539Z,96.61
2023-05-01T16:38:10.217Z,96.80
2023-05-01T16:41:27.242Z,97.07
2023-05-01T16:44:45.728Z,97.21
2023-05-01T16:48:02.381Z,96.81
2023-05-01T16:51:20.892Z,97.22
2023-05-01T16:54:37.639Z,97.13
2023-05-01T16:57:55.090Z,97.08
2023-05-01T17:01:11.832Z,97.13
2023-05-01T17:04:33.661Z,97.07
2023-05-01T17:07:51.325Z,97.93
2023-05-01T17:11:07.687Z,98.39
2023-05-01T17:14:26.858Z,98.05
2023-05-01T17:17:42.075Z,98.40
2023-05-01T17:20:58.275Z,98.58
2023-05-01T17:24:18.522Z,98.49
2023-05-01T17:27:36.314Z,98.66
2023-05-01T17:30:52.796Z,98.64
2023-05-01T17:34:18.440Z,99.03
2023-05-01T17:37:42.984Z,98.87
2023-05-01T17:40:59.354Z,99.16
2023-05-01T17:44:16.012Z,99.50
2023-05-01T17:47:32.487Z,99.77
2023-05-01T17:50:52.292Z,100.00
2023-05-01T17:54:08.958Z,100.00
2023-05-01T17:57:29.212Z,100.00
2023-05-01T18:00:45.759Z,100.00
2023-05-01T18:04:02.558Z,100.00
2023-05-01T18:07:19.365Z,100.00
2023-05-01T18:10:35.810Z,100.00
2023-05-01T18:13:52.842Z,100.00
2023-05-01T18:17:09.608Z,100.00
2023-05-01T18:20:29.807Z,100.00
2023-05-01T18:23:48.488Z,100.00
2023-05-01T18:27:05.605Z,100.00
2023-05-01T18:30:22.775Z,100.00
2023-05-01T18:33:41.719Z,100.00
2023-05-01T18:36:58.115Z,100.00
2023-05-01T18:40:17.394Z,100.00
2023-05-01T18:43:31.475Z,100.00
2023-05-01T18:46:47.669Z,100.00
2023-05-01T18:50:04.372Z,100.00
2023-05-01T18:53:20.959Z,100.00
2023-05-01T18:56:37.296Z,100.00
2023-05-01T18:59:53.805Z,100.00
2023-05-01T19:03:12.605Z,100.00
2023-05-01T19:06:29.086Z,100.00
2023-05-01T19:09:45.494Z,100.00
2023-05-01T19:13:01.782Z,100.00
2023-05-01T19:16:18.365Z,100.00
2023-05-01T19:19:35.007Z,100.00
2023-05-01T19:22:51.433Z,100.00
2023-05-01T19:26:11.318Z,100.00
2023-05-01T19:29:32.933Z,100.00
2023-05-01T19:32:50.404Z,100.00
2023-05-01T19:36:06.951Z,100.00
2023-05-01T19:39:23.694Z,100.00
2023-05-01T19:42:40.359Z,100.00
2023-05-01T19:45:57.705Z,100.00
2023-05-01T19:49:14.490Z,100.00
2023-05-01T19:52:31.349Z,100.00
2023-05-01T19:55:48.154Z,100.00
2023-05-01T19:59:04.843Z,100.00
2023-05-01T20:02:21.743Z,100.00
2023-05-01T20:05:38.325Z,100.00
2023-05-01T20:08:54.739Z,100.00
2023-05-01T20:12:11.402Z,100.00
2023-05-01T20:15:27.825Z,100.00
2023-05-01T20:18:44.163Z,100.00
2023-05-01T20:22:00.502Z,100.00
2023-05-01T20:25:17.732Z,100.00
2023-05-01T20:28:34.182Z,100.00
2023-05-01T20:31:51.377Z,100.00
2023-05-01T20:35:10.917Z,100.00
2023-05-01T20:38:27.391Z,100.00
2023-05-01T20:41:43.808Z,100.00
2023-05-01T20:45:00.211Z,100.00
2023-05-01T20:48:16.916Z,100.00
2023-05-01T20:51:33.742Z,100.00
2023-05-01T20:54:50.105Z,100.00
2023-05-01T20:58:07.048Z,100.00
2023-05-01T21:01:23.368Z,100.00
2023-05-01T21:04:40.178Z,100.00
2023-05-01T21:07:56.583Z,100.00
2023-05-01T21:11:13.081Z,100.00
2023-05-01T21:14:29.562Z,100.00
2023-05-01T21:17:49.808Z,100.00
2023-05-01T21:21:09.627Z,100.00
2023-05-01T21:24:29.430Z,100.00
2023-05-01T21:27:48.928Z,100.00
2023-05-01T21:31:05.387Z,100.00
2023-05-01T21:34:25.259Z,100.00
2023-05-01T21:37:42.033Z,100.00
2023-05-01T21:40:58.570Z,100.00
2023-05-01T21:44:15.273Z,100.00
2023-05-01T21:47:31.799Z,100.00
2023-05-01T21:50:48.493Z,100.00
2023-05-01T21:54:07.214Z,100.00
2023-05-01T21:57:23.953Z,100.00
2023-05-01T22:00:42.619Z,100.00
2023-05-01T22:03:59.251Z,100.00
2023-05-01T22:07:16.477Z,100.00
2023-05-01T22:10:32.816Z,100.00
2023-05-01T22:13:49.156Z,100.00
2023-05-01T22:17:05.800Z,100.00
2023-05-01T22:20:22.483Z,100.00
2023-05-01T22:23:38.785Z,100.00
2023-05-01T22:26:55.196Z,100.00
2023-05-01T22:30:14.199Z,100.00
2023-05-01T22:33:30.744Z,100.00
2023-05-01T22:36:47.042Z,100.00
2023-05-01T22:40:04.463Z,100.00
2023-05-01T22:43:20.969Z,100.00
2023-05-01T22:46:37.289Z,100.00
2023-05-01T22:49:53.761Z,100.00
2023-05-01T22:53:10.159Z,100.00
2023-05-01T22:56:27.383Z,100.00
2023-05-01T22:59:44.982Z,100.00
2023-05-01T23:03:01.627Z,100.00
2023-05-01T23:06:17.927Z,100.00
2023-05-01T23:09:34.638Z,100.00
2023-05-01T23:12:52.875Z,100.00
2023-05-01T23:16:10.273Z,100.00
2023-05-01T23:19:33.952Z,100.00
2023-05-01T23:22:50.854Z,100.00
2023-05-01T23:26:09.226Z,100.00
2023-05-01T23:29:26.360Z,100.00
2023-05-01T23:32:43.371Z,100.00
2023-05-01T23:35:59.898Z,100.00
2023-05-01T23:39:17.149Z,100.00
2023-05-01T23:42:33.490Z,100.00
2023-05-01T23:45:50.001Z,100.00
2023-05-01T23:49:06.584Z,100.00
2023-05-01T23:52:24.298Z,100.00
2023-05-01T23:55:40.829Z,100.00
2023-05-01T23:58:57.109Z,100.00
